sensor_id;sensor_type;location;lat;lon;timestamp;P1;durP1;ratioP1;P2;durP2;ratioP2
4074;SDS011;2052;53.522;9.806;2022-07-23T00:01:27;5.70;;;2.67;;
4074;SDS011;2052;53.522;9.806;2022-07-23T00:03:54;2.63;;;2.43;;
4074;SDS011;2052;53.522;9.806;2022-07-23T00:06:22;3.30;;;2.40;;
4074;SDS011;2052;53.522;9.806;2022-07-23T00:08:49;5.13;;;2.40;;
4074;SDS011;2052;53.522;9.806;2022-07-23T00:11:17;5.87;;;2.40;;
4074;SDS011;2052;53.522;9.806;2022-07-23T00:13:44;6.43;;;2.20;;
4074;SDS011;2052;53.522;9.806;2022-07-23T00:16:11;4.97;;;2.40;;
4074;SDS011;2052;53.522;9.806;2022-07-23T00:18:38;4.50;;;3.03;;
4074;SDS011;2052;53.522;9.806;2022-07-23T00:21:05;2.90;;;2.70;;
4074;SDS011;2052;53.522;9.806;2022-07-23T00:23:31;3.80;;;2.30;;
4074;SDS011;2052;53.522;9.806;2022-07-23T00:25:58;2.77;;;2.50;;
4074;SDS011;2052;53.522;9.806;2022-07-23T00:28:26;4.90;;;2.20;;
4074;SDS011;2052;53.522;9.806;2022-07-23T00:30:53;5.67;;;2.90;;
4074;SDS011;2052;53.522;9.806;2022-07-23T00:33:20;5.20;;;2.63;;
4074;SDS011;2052;53.522;9.806;2022-07-23T00:35:46;7.67;;;2.70;;
4074;SDS011;2052;53.522;9.806;2022-07-23T00:38:13;6.93;;;2.90;;
4074;SDS011;2052;53.522;9.806;2022-07-23T00:40:40;6.57;;;2.77;;
4074;SDS011;2052;53.522;9.806;2022-07-23T00:43:06;4.90;;;2.20;;
4074;SDS011;2052;53.522;9.806;2022-07-23T00:45:35;4.10;;;2.43;;
4074;SDS011;2052;53.522;9.806;2022-07-23T00:48:02;8.93;;;2.20;;
4074;SDS011;2052;53.522;9.806;2022-07-23T00:50:29;2.70;;;2.50;;
4074;SDS011;2052;53.522;9.806;2022-07-23T00:52:56;3.60;;;2.43;;
4074;SDS011;2052;53.522;9.806;2022-07-23T00:55:23;6.90;;;2.60;;
4074;SDS011;2052;53.522;9.806;2022-07-23T00:57:49;4.10;;;2.20;;
4074;SDS011;2052;53.522;9.806;2022-07-23T01:00:16;3.30;;;2.40;;
4074;SDS011;2052;53.522;9.806;2022-07-23T01:02:44;3.40;;;2.60;;
4074;SDS011;2052;53.522;9.806;2022-07-23T01:05:11;8.10;;;2.63;;
4074;SDS011;2052;53.522;9.806;2022-07-23T01:07:38;2.60;;;2.30;;
4074;SDS011;2052;53.522;9.806;2022-07-23T01:10:05;4.60;;;2.73;;
4074;SDS011;2052;53.522;9.806;2022-07-23T01:12:53;5.07;;;2.47;;
4074;SDS011;2052;53.522;9.806;2022-07-23T01:15:21;3.90;;;2.20;;
4074;SDS011;2052;53.522;9.806;2022-07-23T01:17:49;6.60;;;2.67;;
4074;SDS011;2052;53.522;9.806;2022-07-23T01:20:16;7.03;;;2.20;;
4074;SDS011;2052;53.522;9.806;2022-07-23T01:22:44;3.63;;;2.80;;
4074;SDS011;2052;53.522;9.806;2022-07-23T01:25:11;7.13;;;2.63;;
4074;SDS011;2052;53.522;9.806;2022-07-23T01:27:38;3.90;;;2.23;;
4074;SDS011;2052;53.522;9.806;2022-07-23T01:30:05;4.73;;;2.30;;
4074;SDS011;2052;53.522;9.806;2022-07-23T01:32:32;4.67;;;2.33;;
4074;SDS011;2052;53.522;9.806;2022-07-23T01:34:59;2.40;;;1.80;;
4074;SDS011;2052;53.522;9.806;2022-07-23T01:37:26;2.63;;;2.30;;
4074;SDS011;2052;53.522;9.806;2022-07-23T01:39:54;11.30;;;2.27;;
4074;SDS011;2052;53.522;9.806;2022-07-23T01:42:21;3.10;;;2.43;;
4074;SDS011;2052;53.522;9.806;2022-07-23T01:44:48;6.13;;;2.23;;
4074;SDS011;2052;53.522;9.806;2022-07-23T01:47:15;6.47;;;2.83;;
4074;SDS011;2052;53.522;9.806;2022-07-23T01:49:42;2.40;;;2.13;;
4074;SDS011;2052;53.522;9.806;2022-07-23T01:52:09;5.50;;;2.17;;
4074;SDS011;2052;53.522;9.806;2022-07-23T01:54:36;5.10;;;2.00;;
4074;SDS011;2052;53.522;9.806;2022-07-23T01:57:05;1.87;;;1.73;;
4074;SDS011;2052;53.522;9.806;2022-07-23T01:59:32;2.43;;;2.23;;
4074;SDS011;2052;53.522;9.806;2022-07-23T02:01:59;3.97;;;2.57;;
4074;SDS011;2052;53.522;9.806;2022-07-23T02:04:26;2.43;;;2.23;;
4074;SDS011;2052;53.522;9.806;2022-07-23T02:06:53;3.97;;;2.50;;
4074;SDS011;2052;53.522;9.806;2022-07-23T02:09:20;5.77;;;2.60;;
4074;SDS011;2052;53.522;9.806;2022-07-23T02:11:47;5.03;;;2.73;;
4074;SDS011;2052;53.522;9.806;2022-07-23T02:14:15;5.53;;;2.50;;
4074;SDS011;2052;53.522;9.806;2022-07-23T02:16:42;8.30;;;2.80;;
4074;SDS011;2052;53.522;9.806;2022-07-23T02:19:09;7.27;;;2.60;;
4074;SDS011;2052;53.522;9.806;2022-07-23T02:21:35;3.00;;;2.30;;
4074;SDS011;2052;53.522;9.806;2022-07-23T02:24:02;3.53;;;2.33;;
4074;SDS011;2052;53.522;9.806;2022-07-23T02:26:29;3.67;;;2.80;;
4074;SDS011;2052;53.522;9.806;2022-07-23T02:28:57;5.90;;;2.20;;
4074;SDS011;2052;53.522;9.806;2022-07-23T02:31:25;4.80;;;2.30;;
4074;SDS011;2052;53.522;9.806;2022-07-23T02:33:52;3.73;;;2.60;;
4074;SDS011;2052;53.522;9.806;2022-07-23T02:36:19;5.03;;;2.87;;
4074;SDS011;2052;53.522;9.806;2022-07-23T02:38:45;7.00;;;2.80;;
4074;SDS011;2052;53.522;9.806;2022-07-23T02:41:12;4.37;;;2.80;;
4074;SDS011;2052;53.522;9.806;2022-07-23T02:43:39;7.20;;;3.20;;
4074;SDS011;2052;53.522;9.806;2022-07-23T02:46:06;4.93;;;3.27;;
4074;SDS011;2052;53.522;9.806;2022-07-23T02:48:34;5.23;;;2.80;;
4074;SDS011;2052;53.522;9.806;2022-07-23T02:51:01;5.47;;;3.13;;
4074;SDS011;2052;53.522;9.806;2022-07-23T02:53:28;4.80;;;3.00;;
4074;SDS011;2052;53.522;9.806;2022-07-23T02:55:55;7.33;;;3.43;;
4074;SDS011;2052;53.522;9.806;2022-07-23T02:58:21;5.27;;;3.73;;
4074;SDS011;2052;53.522;9.806;2022-07-23T03:00:50;6.33;;;3.73;;
4074;SDS011;2052;53.522;9.806;2022-07-23T03:03:16;5.70;;;3.30;;
4074;SDS011;2052;53.522;9.806;2022-07-23T03:05:45;8.43;;;3.50;;
4074;SDS011;2052;53.522;9.806;2022-07-23T03:08:11;4.93;;;3.17;;
4074;SDS011;2052;53.522;9.806;2022-07-23T03:10:38;11.13;;;4.57;;
4074;SDS011;2052;53.522;9.806;2022-07-23T03:13:04;7.93;;;3.40;;
4074;SDS011;2052;53.522;9.806;2022-07-23T03:15:31;5.87;;;3.20;;
4074;SDS011;2052;53.522;9.806;2022-07-23T03:17:58;3.67;;;3.33;;
4074;SDS011;2052;53.522;9.806;2022-07-23T03:20:25;3.90;;;3.10;;
4074;SDS011;2052;53.522;9.806;2022-07-23T03:22:53;6.73;;;3.93;;
4074;SDS011;2052;53.522;9.806;2022-07-23T03:25:20;9.50;;;4.00;;
4074;SDS011;2052;53.522;9.806;2022-07-23T03:27:46;6.17;;;3.43;;
4074;SDS011;2052;53.522;9.806;2022-07-23T03:30:13;7.00;;;4.43;;
4074;SDS011;2052;53.522;9.806;2022-07-23T03:32:40;13.37;;;4.23;;
4074;SDS011;2052;53.522;9.806;2022-07-23T03:35:07;8.20;;;4.00;;
4074;SDS011;2052;53.522;9.806;2022-07-23T03:37:34;6.40;;;4.17;;
4074;SDS011;2052;53.522;9.806;2022-07-23T03:40:02;9.03;;;3.83;;
4074;SDS011;2052;53.522;9.806;2022-07-23T03:42:30;5.80;;;3.43;;
4074;SDS011;2052;53.522;9.806;2022-07-23T03:44:56;9.47;;;3.77;;
4074;SDS011;2052;53.522;9.806;2022-07-23T03:47:23;6.77;;;3.57;;
4074;SDS011;2052;53.522;9.806;2022-07-23T03:49:50;6.63;;;4.20;;
4074;SDS011;2052;53.522;9.806;2022-07-23T03:52:16;5.33;;;3.90;;
4074;SDS011;2052;53.522;9.806;2022-07-23T03:54:43;9.10;;;4.40;;
4074;SDS011;2052;53.522;9.806;2022-07-23T03:57:11;8.73;;;3.93;;
4074;SDS011;2052;53.522;9.806;2022-07-23T03:59:38;5.97;;;3.97;;
4074;SDS011;2052;53.522;9.806;2022-07-23T04:02:05;9.70;;;4.57;;
4074;SDS011;2052;53.522;9.806;2022-07-23T04:04:31;6.50;;;4.40;;
4074;SDS011;2052;53.522;9.806;2022-07-23T04:06:58;8.53;;;4.17;;
4074;SDS011;2052;53.522;9.806;2022-07-23T04:09:26;5.93;;;4.53;;
4074;SDS011;2052;53.522;9.806;2022-07-23T04:11:52;6.30;;;3.40;;
4074;SDS011;2052;53.522;9.806;2022-07-23T04:14:21;10.70;;;3.53;;
4074;SDS011;2052;53.522;9.806;2022-07-23T04:16:47;6.50;;;3.77;;
4074;SDS011;2052;53.522;9.806;2022-07-23T04:19:14;9.97;;;3.80;;
4074;SDS011;2052;53.522;9.806;2022-07-23T04:21:40;5.57;;;4.30;;
4074;SDS011;2052;53.522;9.806;2022-07-23T04:24:07;5.80;;;4.17;;
4074;SDS011;2052;53.522;9.806;2022-07-23T04:26:34;5.47;;;4.30;;
4074;SDS011;2052;53.522;9.806;2022-07-23T04:29:01;8.67;;;4.20;;
4074;SDS011;2052;53.522;9.806;2022-07-23T04:31:29;9.20;;;4.50;;
4074;SDS011;2052;53.522;9.806;2022-07-23T04:33:56;5.10;;;4.23;;
4074;SDS011;2052;53.522;9.806;2022-07-23T04:36:22;8.73;;;4.20;;
4074;SDS011;2052;53.522;9.806;2022-07-23T04:38:49;6.53;;;3.93;;
4074;SDS011;2052;53.522;9.806;2022-07-23T04:41:16;7.23;;;4.30;;
4074;SDS011;2052;53.522;9.806;2022-07-23T04:43:42;4.83;;;3.60;;
4074;SDS011;2052;53.522;9.806;2022-07-23T04:46:09;7.17;;;3.83;;
4074;SDS011;2052;53.522;9.806;2022-07-23T04:48:38;5.83;;;4.13;;
4074;SDS011;2052;53.522;9.806;2022-07-23T04:51:04;5.60;;;4.47;;
4074;SDS011;2052;53.522;9.806;2022-07-23T04:53:31;6.93;;;3.43;;
4074;SDS011;2052;53.522;9.806;2022-07-23T04:55:58;8.73;;;3.30;;
4074;SDS011;2052;53.522;9.806;2022-07-23T04:58:25;6.30;;;3.50;;
4074;SDS011;2052;53.522;9.806;2022-07-23T05:00:51;4.50;;;3.07;;
4074;SDS011;2052;53.522;9.806;2022-07-23T05:03:18;4.30;;;2.93;;
4074;SDS011;2052;53.522;9.806;2022-07-23T05:05:46;4.87;;;2.80;;
4074;SDS011;2052;53.522;9.806;2022-07-23T05:08:13;5.33;;;3.60;;
4074;SDS011;2052;53.522;9.806;2022-07-23T05:10:40;8.17;;;3.40;;
4074;SDS011;2052;53.522;9.806;2022-07-23T05:13:06;4.07;;;3.20;;
4074;SDS011;2052;53.522;9.806;2022-07-23T05:15:33;4.10;;;3.47;;
4074;SDS011;2052;53.522;9.806;2022-07-23T05:18:00;10.57;;;3.90;;
4074;SDS011;2052;53.522;9.806;2022-07-23T05:20:27;6.20;;;3.90;;
4074;SDS011;2052;53.522;9.806;2022-07-23T05:22:55;4.60;;;3.40;;
4074;SDS011;2052;53.522;9.806;2022-07-23T05:25:22;6.80;;;3.70;;
4074;SDS011;2052;53.522;9.806;2022-07-23T05:27:48;7.40;;;3.77;;
4074;SDS011;2052;53.522;9.806;2022-07-23T05:30:15;6.40;;;4.20;;
4074;SDS011;2052;53.522;9.806;2022-07-23T05:32:42;5.87;;;3.80;;
4074;SDS011;2052;53.522;9.806;2022-07-23T05:35:08;7.30;;;4.90;;
4074;SDS011;2052;53.522;9.806;2022-07-23T05:37:35;7.10;;;4.80;;
4074;SDS011;2052;53.522;9.806;2022-07-23T05:40:04;6.03;;;3.50;;
4074;SDS011;2052;53.522;9.806;2022-07-23T05:42:32;11.77;;;5.70;;
4074;SDS011;2052;53.522;9.806;2022-07-23T05:44:59;10.50;;;4.77;;
4074;SDS011;2052;53.522;9.806;2022-07-23T05:47:26;8.20;;;4.80;;
4074;SDS011;2052;53.522;9.806;2022-07-23T05:49:53;9.53;;;4.10;;
4074;SDS011;2052;53.522;9.806;2022-07-23T05:52:19;5.43;;;4.60;;
4074;SDS011;2052;53.522;9.806;2022-07-23T05:54:46;13.47;;;4.27;;
4074;SDS011;2052;53.522;9.806;2022-07-23T05:57:14;8.53;;;4.27;;
4074;SDS011;2052;53.522;9.806;2022-07-23T05:59:41;6.63;;;4.10;;
4074;SDS011;2052;53.522;9.806;2022-07-23T06:02:08;6.80;;;4.00;;
4074;SDS011;2052;53.522;9.806;2022-07-23T06:04:34;4.57;;;3.80;;
4074;SDS011;2052;53.522;9.806;2022-07-23T06:07:01;6.50;;;3.97;;
4074;SDS011;2052;53.522;9.806;2022-07-23T06:09:28;8.80;;;3.90;;
4074;SDS011;2052;53.522;9.806;2022-07-23T06:11:55;6.17;;;3.10;;
4074;SDS011;2052;53.522;9.806;2022-07-23T06:14:23;5.43;;;2.90;;
4074;SDS011;2052;53.522;9.806;2022-07-23T06:16:50;7.17;;;2.80;;
4074;SDS011;2052;53.522;9.806;2022-07-23T06:19:16;4.10;;;3.17;;
4074;SDS011;2052;53.522;9.806;2022-07-23T06:21:43;11.10;;;3.10;;
4074;SDS011;2052;53.522;9.806;2022-07-23T06:24:10;5.50;;;3.10;;
4074;SDS011;2052;53.522;9.806;2022-07-23T06:26:37;3.80;;;3.07;;
4074;SDS011;2052;53.522;9.806;2022-07-23T06:29:03;2.63;;;2.30;;
4074;SDS011;2052;53.522;9.806;2022-07-23T06:31:31;5.10;;;3.10;;
4074;SDS011;2052;53.522;9.806;2022-07-23T06:33:58;2.50;;;2.30;;
4074;SDS011;2052;53.522;9.806;2022-07-23T06:36:25;3.73;;;2.90;;
4074;SDS011;2052;53.522;9.806;2022-07-23T06:38:52;3.47;;;2.20;;
4074;SDS011;2052;53.522;9.806;2022-07-23T06:41:18;4.17;;;1.97;;
4074;SDS011;2052;53.522;9.806;2022-07-23T06:43:45;2.80;;;2.00;;
4074;SDS011;2052;53.522;9.806;2022-07-23T06:46:12;2.70;;;1.60;;
4074;SDS011;2052;53.522;9.806;2022-07-23T06:48:40;4.00;;;1.33;;
4074;SDS011;2052;53.522;9.806;2022-07-23T06:51:07;2.40;;;1.13;;
4074;SDS011;2052;53.522;9.806;2022-07-23T06:53:33;4.03;;;1.63;;
4074;SDS011;2052;53.522;9.806;2022-07-23T06:56:00;2.57;;;1.77;;
4074;SDS011;2052;53.522;9.806;2022-07-23T06:58:27;1.70;;;0.87;;
4074;SDS011;2052;53.522;9.806;2022-07-23T07:00:54;4.20;;;1.10;;
4074;SDS011;2052;53.522;9.806;2022-07-23T07:03:22;1.37;;;0.90;;
4074;SDS011;2052;53.522;9.806;2022-07-23T07:05:50;4.13;;;1.30;;
4074;SDS011;2052;53.522;9.806;2022-07-23T07:08:18;1.73;;;1.10;;
4074;SDS011;2052;53.522;9.806;2022-07-23T07:10:45;2.13;;;1.40;;
4074;SDS011;2052;53.522;9.806;2022-07-23T07:13:12;2.97;;;1.40;;
4074;SDS011;2052;53.522;9.806;2022-07-23T07:15:39;3.33;;;1.30;;
4074;SDS011;2052;53.522;9.806;2022-07-23T07:18:05;2.93;;;2.03;;
4074;SDS011;2052;53.522;9.806;2022-07-23T07:20:32;1.53;;;1.37;;
4074;SDS011;2052;53.522;9.806;2022-07-23T07:23:00;4.83;;;1.30;;
4074;SDS011;2052;53.522;9.806;2022-07-23T07:25:27;2.80;;;1.27;;
4074;SDS011;2052;53.522;9.806;2022-07-23T07:27:54;3.77;;;1.77;;
4074;SDS011;2052;53.522;9.806;2022-07-23T07:30:20;2.27;;;1.47;;
4074;SDS011;2052;53.522;9.806;2022-07-23T07:32:47;2.77;;;1.47;;
4074;SDS011;2052;53.522;9.806;2022-07-23T07:35:14;1.40;;;1.03;;
4074;SDS011;2052;53.522;9.806;2022-07-23T07:37:41;0.97;;;0.90;;
4074;SDS011;2052;53.522;9.806;2022-07-23T07:40:09;1.20;;;0.80;;
4074;SDS011;2052;53.522;9.806;2022-07-23T07:42:43;2.40;;;0.77;;
4074;SDS011;2052;53.522;9.806;2022-07-23T07:45:10;1.50;;;1.20;;
4074;SDS011;2052;53.522;9.806;2022-07-23T07:47:37;6.90;;;3.60;;
4074;SDS011;2052;53.522;9.806;2022-07-23T07:50:04;8.97;;;1.87;;
4074;SDS011;2052;53.522;9.806;2022-07-23T07:52:32;2.63;;;1.30;;
4074;SDS011;2052;53.522;9.806;2022-07-23T07:55:01;3.10;;;1.50;;
4074;SDS011;2052;53.522;9.806;2022-07-23T07:57:29;2.10;;;0.90;;
4074;SDS011;2052;53.522;9.806;2022-07-23T07:59:56;2.20;;;1.00;;
4074;SDS011;2052;53.522;9.806;2022-07-23T08:02:24;1.53;;;0.80;;
4074;SDS011;2052;53.522;9.806;2022-07-23T08:04:50;2.70;;;0.73;;
4074;SDS011;2052;53.522;9.806;2022-07-23T08:07:17;0.80;;;0.80;;
4074;SDS011;2052;53.522;9.806;2022-07-23T08:09:44;2.37;;;0.60;;
4074;SDS011;2052;53.522;9.806;2022-07-23T08:12:11;2.37;;;0.80;;
4074;SDS011;2052;53.522;9.806;2022-07-23T08:14:39;0.80;;;0.80;;
4074;SDS011;2052;53.522;9.806;2022-07-23T08:17:06;1.63;;;1.10;;
4074;SDS011;2052;53.522;9.806;2022-07-23T08:19:33;1.17;;;1.07;;
4074;SDS011;2052;53.522;9.806;2022-07-23T08:21:59;4.53;;;0.80;;
4074;SDS011;2052;53.522;9.806;2022-07-23T08:24:26;1.37;;;0.90;;
4074;SDS011;2052;53.522;9.806;2022-07-23T08:26:53;2.00;;;1.13;;
4074;SDS011;2052;53.522;9.806;2022-07-23T08:29:20;1.87;;;0.93;;
4074;SDS011;2052;53.522;9.806;2022-07-23T08:31:48;1.13;;;0.63;;
4074;SDS011;2052;53.522;9.806;2022-07-23T08:34:15;0.83;;;0.60;;
4074;SDS011;2052;53.522;9.806;2022-07-23T08:36:41;0.60;;;0.60;;
4074;SDS011;2052;53.522;9.806;2022-07-23T08:39:08;0.80;;;0.70;;
4074;SDS011;2052;53.522;9.806;2022-07-23T08:41:35;2.30;;;0.77;;
4074;SDS011;2052;53.522;9.806;2022-07-23T08:44:02;4.30;;;1.10;;
4074;SDS011;2052;53.522;9.806;2022-07-23T08:46:29;0.60;;;0.60;;
4074;SDS011;2052;53.522;9.806;2022-07-23T08:48:57;1.40;;;0.70;;
4074;SDS011;2052;53.522;9.806;2022-07-23T08:51:26;2.33;;;0.60;;
4074;SDS011;2052;53.522;9.806;2022-07-23T08:53:55;0.70;;;0.60;;
4074;SDS011;2052;53.522;9.806;2022-07-23T08:56:23;0.60;;;0.57;;
4074;SDS011;2052;53.522;9.806;2022-07-23T08:58:50;1.43;;;0.73;;
4074;SDS011;2052;53.522;9.806;2022-07-23T09:01:16;1.30;;;0.67;;
4074;SDS011;2052;53.522;9.806;2022-07-23T09:03:43;3.03;;;1.00;;
4074;SDS011;2052;53.522;9.806;2022-07-23T09:06:12;0.70;;;0.57;;
4074;SDS011;2052;53.522;9.806;2022-07-23T09:08:39;2.40;;;0.97;;
4074;SDS011;2052;53.522;9.806;2022-07-23T09:11:08;1.57;;;0.90;;
4074;SDS011;2052;53.522;9.806;2022-07-23T09:13:37;1.37;;;0.70;;
4074;SDS011;2052;53.522;9.806;2022-07-23T09:16:08;0.80;;;0.70;;
4074;SDS011;2052;53.522;9.806;2022-07-23T09:18:39;1.37;;;0.70;;
4074;SDS011;2052;53.522;9.806;2022-07-23T09:21:20;1.10;;;1.00;;
4074;SDS011;2052;53.522;9.806;2022-07-23T09:23:51;1.67;;;0.60;;
4074;SDS011;2052;53.522;9.806;2022-07-23T09:29:06;1.70;;;0.80;;
4074;SDS011;2052;53.522;9.806;2022-07-23T09:31:44;1.57;;;0.90;;
4074;SDS011;2052;53.522;9.806;2022-07-23T09:34:16;0.90;;;0.60;;
4074;SDS011;2052;53.522;9.806;2022-07-23T09:36:46;2.00;;;0.70;;
4074;SDS011;2052;53.522;9.806;2022-07-23T09:39:14;2.03;;;0.87;;
4074;SDS011;2052;53.522;9.806;2022-07-23T09:41:43;1.93;;;0.70;;
4074;SDS011;2052;53.522;9.806;2022-07-23T09:44:14;1.10;;;0.80;;
4074;SDS011;2052;53.522;9.806;2022-07-23T09:46:43;1.43;;;0.80;;
4074;SDS011;2052;53.522;9.806;2022-07-23T09:49:12;0.80;;;0.80;;
4074;SDS011;2052;53.522;9.806;2022-07-23T09:51:44;1.73;;;0.80;;
4074;SDS011;2052;53.522;9.806;2022-07-23T09:54:29;1.63;;;0.90;;
4074;SDS011;2052;53.522;9.806;2022-07-23T09:56:59;1.00;;;0.60;;
4074;SDS011;2052;53.522;9.806;2022-07-23T09:59:28;0.90;;;0.70;;
4074;SDS011;2052;53.522;9.806;2022-07-23T10:01:56;0.93;;;0.83;;
4074;SDS011;2052;53.522;9.806;2022-07-23T10:04:25;2.50;;;1.20;;
4074;SDS011;2052;53.522;9.806;2022-07-23T10:06:54;1.40;;;0.80;;
4074;SDS011;2052;53.522;9.806;2022-07-23T10:09:23;1.43;;;0.60;;
4074;SDS011;2052;53.522;9.806;2022-07-23T10:11:52;1.17;;;0.90;;
4074;SDS011;2052;53.522;9.806;2022-07-23T10:14:40;0.90;;;0.60;;
4074;SDS011;2052;53.522;9.806;2022-07-23T10:17:06;0.87;;;0.60;;
4074;SDS011;2052;53.522;9.806;2022-07-23T10:19:33;1.10;;;0.57;;
4074;SDS011;2052;53.522;9.806;2022-07-23T10:22:02;1.17;;;0.70;;
4074;SDS011;2052;53.522;9.806;2022-07-23T10:24:40;1.23;;;0.50;;
4074;SDS011;2052;53.522;9.806;2022-07-23T10:27:18;2.50;;;0.60;;
4074;SDS011;2052;53.522;9.806;2022-07-23T10:29:54;1.53;;;0.50;;
4074;SDS011;2052;53.522;9.806;2022-07-23T10:32:26;1.77;;;0.60;;
4074;SDS011;2052;53.522;9.806;2022-07-23T10:35:03;0.70;;;0.50;;
4074;SDS011;2052;53.522;9.806;2022-07-23T10:37:36;0.70;;;0.53;;
4074;SDS011;2052;53.522;9.806;2022-07-23T10:40:09;1.93;;;0.60;;
4074;SDS011;2052;53.522;9.806;2022-07-23T10:42:37;1.00;;;0.60;;
4074;SDS011;2052;53.522;9.806;2022-07-23T10:45:25;0.60;;;0.60;;
4074;SDS011;2052;53.522;9.806;2022-07-23T10:47:53;1.17;;;0.60;;
4074;SDS011;2052;53.522;9.806;2022-07-23T10:50:21;1.33;;;0.70;;
4074;SDS011;2052;53.522;9.806;2022-07-23T10:53:10;0.80;;;0.60;;
4074;SDS011;2052;53.522;9.806;2022-07-23T10:55:40;0.70;;;0.60;;
4074;SDS011;2052;53.522;9.806;2022-07-23T10:58:08;2.13;;;1.00;;
4074;SDS011;2052;53.522;9.806;2022-07-23T11:00:35;0.77;;;0.70;;
4074;SDS011;2052;53.522;9.806;2022-07-23T11:03:04;0.83;;;0.70;;
4074;SDS011;2052;53.522;9.806;2022-07-23T11:05:39;2.60;;;1.30;;
4074;SDS011;2052;53.522;9.806;2022-07-23T11:08:15;2.40;;;0.70;;
4074;SDS011;2052;53.522;9.806;2022-07-23T11:10:44;0.50;;;0.50;;
4074;SDS011;2052;53.522;9.806;2022-07-23T11:16:17;1.13;;;0.50;;
4074;SDS011;2052;53.522;9.806;2022-07-23T11:18:58;0.90;;;0.53;;
4074;SDS011;2052;53.522;9.806;2022-07-23T11:21:49;0.90;;;0.50;;
4074;SDS011;2052;53.522;9.806;2022-07-23T11:24:19;2.03;;;0.60;;
4074;SDS011;2052;53.522;9.806;2022-07-23T11:26:48;0.80;;;0.80;;
4074;SDS011;2052;53.522;9.806;2022-07-23T11:35:24;0.70;;;0.70;;
4074;SDS011;2052;53.522;9.806;2022-07-23T11:37:52;0.80;;;0.70;;
4074;SDS011;2052;53.522;9.806;2022-07-23T11:40:25;0.93;;;0.93;;
4074;SDS011;2052;53.522;9.806;2022-07-23T11:42:54;0.90;;;0.80;;
4074;SDS011;2052;53.522;9.806;2022-07-23T11:45:22;1.47;;;1.30;;
4074;SDS011;2052;53.522;9.806;2022-07-23T11:47:50;1.83;;;0.90;;
4074;SDS011;2052;53.522;9.806;2022-07-23T11:50:16;1.13;;;0.90;;
4074;SDS011;2052;53.522;9.806;2022-07-23T11:52:43;1.40;;;0.80;;
4074;SDS011;2052;53.522;9.806;2022-07-23T11:55:10;1.47;;;1.10;;
4074;SDS011;2052;53.522;9.806;2022-07-23T11:57:39;1.10;;;1.00;;
4074;SDS011;2052;53.522;9.806;2022-07-23T12:00:07;2.77;;;1.37;;
4074;SDS011;2052;53.522;9.806;2022-07-23T12:02:36;1.27;;;0.70;;
4074;SDS011;2052;53.522;9.806;2022-07-23T12:05:03;2.33;;;1.87;;
4074;SDS011;2052;53.522;9.806;2022-07-23T12:07:31;1.00;;;0.90;;
4074;SDS011;2052;53.522;9.806;2022-07-23T12:10:00;0.80;;;0.80;;
4074;SDS011;2052;53.522;9.806;2022-07-23T12:12:34;2.80;;;1.30;;
4074;SDS011;2052;53.522;9.806;2022-07-23T12:15:04;2.40;;;1.40;;
4074;SDS011;2052;53.522;9.806;2022-07-23T12:17:33;2.20;;;1.63;;
4074;SDS011;2052;53.522;9.806;2022-07-23T12:20:01;2.83;;;1.30;;
4074;SDS011;2052;53.522;9.806;2022-07-23T12:22:33;2.00;;;1.57;;
4074;SDS011;2052;53.522;9.806;2022-07-23T12:25:03;1.97;;;1.50;;
4074;SDS011;2052;53.522;9.806;2022-07-23T12:27:31;1.40;;;1.30;;
4074;SDS011;2052;53.522;9.806;2022-07-23T12:29:58;3.27;;;1.57;;
4074;SDS011;2052;53.522;9.806;2022-07-23T12:32:27;2.90;;;1.60;;
4074;SDS011;2052;53.522;9.806;2022-07-23T12:35:02;2.73;;;1.50;;
4074;SDS011;2052;53.522;9.806;2022-07-23T12:37:31;1.37;;;1.27;;
4074;SDS011;2052;53.522;9.806;2022-07-23T12:42:48;3.07;;;0.93;;
4074;SDS011;2052;53.522;9.806;2022-07-23T12:45:16;2.50;;;1.10;;
4074;SDS011;2052;53.522;9.806;2022-07-23T12:50:47;1.00;;;0.90;;
4074;SDS011;2052;53.522;9.806;2022-07-23T12:53:20;3.57;;;1.17;;
4074;SDS011;2052;53.522;9.806;2022-07-23T12:55:48;2.00;;;1.40;;
4074;SDS011;2052;53.522;9.806;2022-07-23T12:58:16;2.30;;;1.00;;
4074;SDS011;2052;53.522;9.806;2022-07-23T13:00:54;1.10;;;0.70;;
4074;SDS011;2052;53.522;9.806;2022-07-23T13:03:36;1.63;;;1.10;;
4074;SDS011;2052;53.522;9.806;2022-07-23T13:06:04;1.87;;;1.20;;
4074;SDS011;2052;53.522;9.806;2022-07-23T13:08:32;3.43;;;1.00;;
4074;SDS011;2052;53.522;9.806;2022-07-23T13:11:00;1.30;;;0.93;;
4074;SDS011;2052;53.522;9.806;2022-07-23T13:13:29;2.00;;;1.13;;
4074;SDS011;2052;53.522;9.806;2022-07-23T13:15:57;1.57;;;0.90;;
4074;SDS011;2052;53.522;9.806;2022-07-23T13:18:24;1.27;;;0.80;;
4074;SDS011;2052;53.522;9.806;2022-07-23T13:20:53;5.13;;;1.20;;
4074;SDS011;2052;53.522;9.806;2022-07-23T13:23:20;1.00;;;0.70;;
4074;SDS011;2052;53.522;9.806;2022-07-23T13:25:47;5.97;;;1.10;;
4074;SDS011;2052;53.522;9.806;2022-07-23T13:28:15;1.27;;;1.17;;
4074;SDS011;2052;53.522;9.806;2022-07-23T13:30:43;1.13;;;0.80;;
4074;SDS011;2052;53.522;9.806;2022-07-23T13:33:11;3.27;;;1.57;;
4074;SDS011;2052;53.522;9.806;2022-07-23T13:35:38;4.73;;;1.17;;
4074;SDS011;2052;53.522;9.806;2022-07-23T13:38:06;1.23;;;0.90;;
4074;SDS011;2052;53.522;9.806;2022-07-23T13:40:34;0.80;;;0.80;;
4074;SDS011;2052;53.522;9.806;2022-07-23T13:43:03;1.20;;;1.00;;
4074;SDS011;2052;53.522;9.806;2022-07-23T13:45:30;1.63;;;0.90;;
4074;SDS011;2052;53.522;9.806;2022-07-23T13:47:57;1.53;;;1.10;;
4074;SDS011;2052;53.522;9.806;2022-07-23T13:50:24;1.30;;;1.00;;
4074;SDS011;2052;53.522;9.806;2022-07-23T13:52:51;4.30;;;1.30;;
4074;SDS011;2052;53.522;9.806;2022-07-23T13:55:19;0.80;;;0.80;;
4074;SDS011;2052;53.522;9.806;2022-07-23T13:57:45;4.70;;;1.00;;
4074;SDS011;2052;53.522;9.806;2022-07-23T14:00:12;1.37;;;0.93;;
4074;SDS011;2052;53.522;9.806;2022-07-23T14:02:40;3.00;;;0.97;;
4074;SDS011;2052;53.522;9.806;2022-07-23T14:05:08;1.30;;;0.73;;
4074;SDS011;2052;53.522;9.806;2022-07-23T14:07:36;1.93;;;1.00;;
4074;SDS011;2052;53.522;9.806;2022-07-23T14:10:04;1.00;;;0.90;;
4074;SDS011;2052;53.522;9.806;2022-07-23T14:12:33;1.40;;;0.83;;
4074;SDS011;2052;53.522;9.806;2022-07-23T14:15:00;1.73;;;0.90;;
4074;SDS011;2052;53.522;9.806;2022-07-23T14:17:27;2.13;;;0.97;;
4074;SDS011;2052;53.522;9.806;2022-07-23T14:19:54;3.13;;;0.80;;
4074;SDS011;2052;53.522;9.806;2022-07-23T14:22:20;2.10;;;0.83;;
4074;SDS011;2052;53.522;9.806;2022-07-23T14:24:47;2.10;;;0.80;;
4074;SDS011;2052;53.522;9.806;2022-07-23T14:27:14;1.67;;;0.87;;
4074;SDS011;2052;53.522;9.806;2022-07-23T14:29:42;1.80;;;0.90;;
4074;SDS011;2052;53.522;9.806;2022-07-23T14:32:09;1.67;;;0.77;;
4074;SDS011;2052;53.522;9.806;2022-07-23T14:34:35;1.47;;;0.80;;
4074;SDS011;2052;53.522;9.806;2022-07-23T14:37:02;0.80;;;0.80;;
4074;SDS011;2052;53.522;9.806;2022-07-23T14:39:29;5.10;;;1.20;;
4074;SDS011;2052;53.522;9.806;2022-07-23T14:41:56;1.50;;;0.90;;
4074;SDS011;2052;53.522;9.806;2022-07-23T14:44:22;0.80;;;0.80;;
4074;SDS011;2052;53.522;9.806;2022-07-23T14:46:51;1.07;;;0.80;;
4074;SDS011;2052;53.522;9.806;2022-07-23T14:49:18;1.83;;;0.80;;
4074;SDS011;2052;53.522;9.806;2022-07-23T14:51:44;1.77;;;1.13;;
4074;SDS011;2052;53.522;9.806;2022-07-23T14:54:11;2.70;;;1.17;;
4074;SDS011;2052;53.522;9.806;2022-07-23T14:56:39;3.43;;;0.90;;
4074;SDS011;2052;53.522;9.806;2022-07-23T14:59:06;1.43;;;0.93;;
4074;SDS011;2052;53.522;9.806;2022-07-23T15:01:33;2.60;;;0.90;;
4074;SDS011;2052;53.522;9.806;2022-07-23T15:04:02;0.83;;;0.83;;
4074;SDS011;2052;53.522;9.806;2022-07-23T15:06:29;2.80;;;1.30;;
4074;SDS011;2052;53.522;9.806;2022-07-23T15:08:56;1.87;;;0.90;;
4074;SDS011;2052;53.522;9.806;2022-07-23T15:11:23;1.13;;;1.00;;
4074;SDS011;2052;53.522;9.806;2022-07-23T15:13:50;0.70;;;0.70;;
4074;SDS011;2052;53.522;9.806;2022-07-23T15:16:17;2.73;;;0.90;;
4074;SDS011;2052;53.522;9.806;2022-07-23T15:18:43;2.70;;;1.10;;
4074;SDS011;2052;53.522;9.806;2022-07-23T15:21:11;5.13;;;1.07;;
4074;SDS011;2052;53.522;9.806;2022-07-23T15:23:38;0.93;;;0.80;;
4074;SDS011;2052;53.522;9.806;2022-07-23T15:26:05;2.13;;;1.30;;
4074;SDS011;2052;53.522;9.806;2022-07-23T15:28:32;2.00;;;1.17;;
4074;SDS011;2052;53.522;9.806;2022-07-23T15:30:59;2.07;;;1.07;;
4074;SDS011;2052;53.522;9.806;2022-07-23T15:33:26;3.73;;;1.13;;
4074;SDS011;2052;53.522;9.806;2022-07-23T15:35:53;3.67;;;1.30;;
4074;SDS011;2052;53.522;9.806;2022-07-23T15:38:23;2.40;;;1.13;;